Time;durP1;ratioP1;P1;durP2;ratioP2;P2;SDS_P1;SDS_P2;PMS_P1;PMS_P2;Temp;Humidity;BMP_temperature;BMP_pressure;BME280_temperature;BME280_humidity;BME280_pressure;Samples;Min_cycle;Max_cycle;Signal;HPM_P1;HPM_P2
2021/08/31 00:00:16;;;;;;;10.90;9.23;;;17.20;81.40;;;;;;5022535;28;20479;-47
2021/08/31 00:02:43;;;;;;;14.40;9.57;;;17.20;81.40;;;;;;5014187;28;20489;-47
2021/08/31 00:05:12;;;;;;;10.20;8.23;;;17.20;81.50;;;;;;5024114;28;20832;-47
2021/08/31 00:07:39;;;;;;;10.30;8.17;;;17.10;81.50;;;;;;5025498;28;20463;-47
2021/08/31 00:10:07;;;;;;;9.90;8.90;;;17.10;81.50;;;;;;5020997;28;20543;-47
2021/08/31 00:12:33;;;;;;;12.87;8.90;;;17.10;81.60;;;;;;5021335;28;20479;-47
2021/08/31 00:15:01;;;;;;;10.30;9.13;;;17.10;81.60;;;;;;5021588;28;20546;-47
2021/08/31 00:17:27;;;;;;;9.50;8.53;;;17.10;81.50;;;;;;5020617;28;20467;-47
2021/08/31 00:19:54;;;;;;;10.20;9.17;;;17.10;81.70;;;;;;5022304;28;20482;-47
2021/08/31 00:22:21;;;;;;;12.00;8.97;;;17.10;81.80;;;;;;5008481;28;20477;-47
2021/08/31 00:24:48;;;;;;;10.37;8.97;;;17.10;81.60;;;;;;5009638;28;20461;-47
2021/08/31 00:27:15;;;;;;;10.67;9.00;;;17.00;81.70;;;;;;5022442;28;20459;-47
2021/08/31 00:29:41;;;;;;;10.00;8.40;;;17.00;81.80;;;;;;5021896;28;20459;-47
2021/08/31 00:32:08;;;;;;;9.50;8.30;;;17.00;81.80;;;;;;5020983;28;20456;-47
2021/08/31 00:34:35;;;;;;;12.13;9.73;;;17.00;81.80;;;;;;5021473;28;20482;-47
2021/08/31 00:37:02;;;;;;;10.30;8.50;;;17.00;81.90;;;;;;5023685;28;20454;-47
2021/08/31 00:39:29;;;;;;;12.20;8.03;;;17.00;82.00;;;;;;5019240;28;20498;-47
2021/08/31 00:41:55;;;;;;;10.37;8.43;;;17.00;82.00;;;;;;5020371;28;20480;-47
2021/08/31 00:44:29;;;;;;;11.27;8.80;;;17.00;82.00;;;;;;5023918;28;20455;-47
2021/08/31 00:46:57;;;;;;;9.70;8.20;;;16.90;82.10;;;;;;5022479;28;20456;-47
2021/08/31 00:49:24;;;;;;;11.43;9.03;;;16.90;82.10;;;;;;5007461;28;20558;-47
2021/08/31 00:51:53;;;;;;;10.20;7.40;;;16.90;82.00;;;;;;5020867;28;20451;-47
2021/08/31 00:54:21;;;;;;;10.80;8.90;;;17.00;81.90;;;;;;5000718;28;20468;-47
2021/08/31 00:56:55;;;;;;;9.20;8.07;;;17.00;81.70;;;;;;5019812;28;20982;-47
2021/08/31 00:59:22;;;;;;;9.13;8.20;;;16.90;81.90;;;;;;5016960;28;20448;-47
2021/08/31 01:01:49;;;;;;;10.90;8.30;;;16.90;82.00;;;;;;5019077;28;20559;-47
2021/08/31 01:04:25;;;;;;;11.13;9.30;;;16.90;82.10;;;;;;5022364;28;20463;-47
2021/08/31 01:06:52;;;;;;;9.40;8.40;;;16.90;82.30;;;;;;5021993;28;20982;-47
2021/08/31 01:09:21;;;;;;;12.03;8.43;;;16.80;82.30;;;;;;5007271;28;20467;-47
2021/08/31 01:11:50;;;;;;;9.27;7.80;;;16.80;82.40;;;;;;5027089;28;20534;-47
2021/08/31 01:14:19;;;;;;;11.47;9.20;;;16.80;82.50;;;;;;5025042;28;20466;-47
2021/08/31 01:16:47;;;;;;;10.83;8.53;;;16.80;82.60;;;;;;5026403;28;20539;-47
2021/08/31 01:19:14;;;;;;;8.53;7.70;;;16.80;82.50;;;;;;5008105;28;20467;-47
2021/08/31 01:21:41;;;;;;;10.13;7.37;;;16.80;82.40;;;;;;5022185;28;20494;-47
2021/08/31 01:24:09;;;;;;;9.13;7.67;;;16.80;82.20;;;;;;5026213;28;20459;-47
2021/08/31 01:26:36;;;;;;;8.63;7.70;;;16.80;82.20;;;;;;5025636;28;21135;-47
2021/08/31 01:29:03;;;;;;;9.80;8.50;;;16.80;82.20;;;;;;5027891;28;20459;-47
2021/08/31 01:31:30;;;;;;;9.23;7.97;;;16.70;82.30;;;;;;5026141;28;20693;-47
2021/08/31 01:33:57;;;;;;;8.83;7.80;;;16.70;82.40;;;;;;5025596;28;20474;-47
2021/08/31 01:36:25;;;;;;;8.43;7.30;;;16.60;82.60;;;;;;5010771;28;20465;-47
2021/08/31 01:38:57;;;;;;;9.53;7.87;;;16.60;82.70;;;;;;5024591;28;20991;-47
2021/08/31 01:41:25;;;;;;;8.87;7.97;;;16.60;82.80;;;;;;5013141;28;20566;-47
2021/08/31 01:43:52;;;;;;;8.57;7.27;;;16.50;82.80;;;;;;5026183;28;20464;-47
2021/08/31 01:46:19;;;;;;;11.23;9.37;;;16.50;82.90;;;;;;5023139;28;20471;-47
2021/08/31 01:48:46;;;;;;;9.97;7.80;;;16.50;82.90;;;;;;5027471;28;20512;-47
2021/08/31 01:51:12;;;;;;;8.47;7.23;;;16.40;83.00;;;;;;5023870;28;20458;-47
2021/08/31 01:53:39;;;;;;;8.40;7.53;;;16.40;83.00;;;;;;5024926;28;20461;-47
2021/08/31 01:56:06;;;;;;;11.60;8.50;;;16.40;83.10;;;;;;5009584;28;20459;-47
2021/08/31 01:58:33;;;;;;;8.80;7.60;;;16.40;83.10;;;;;;5008905;28;20463;-47
2021/08/31 02:01:00;;;;;;;10.83;7.87;;;16.40;83.20;;;;;;5023528;28;20493;-47
2021/08/31 02:03:27;;;;;;;11.47;8.93;;;16.40;83.10;;;;;;5025157;28;20972;-47
2021/08/31 02:05:54;;;;;;;8.60;7.40;;;16.40;83.20;;;;;;5022296;28;20839;-47
2021/08/31 02:08:21;;;;;;;9.97;7.50;;;16.40;83.30;;;;;;5027168;28;20448;-47
2021/08/31 02:10:47;;;;;;;9.30;7.60;;;16.40;83.50;;;;;;5010989;28;20466;-47
2021/08/31 02:13:14;;;;;;;11.20;7.90;;;16.40;83.60;;;;;;5022854;28;20664;-47
2021/08/31 02:15:41;;;;;;;10.87;8.30;;;16.40;83.60;;;;;;5026032;28;20459;-48
2021/08/31 02:18:08;;;;;;;8.60;7.73;;;16.40;83.60;;;;;;5010659;28;20451;-48
2021/08/31 02:20:36;;;;;;;9.80;7.70;;;16.40;83.50;;;;;;5023050;28;20499;-48
2021/08/31 02:23:03;;;;;;;8.03;7.23;;;16.40;83.40;;;;;;5010416;28;20460;-48
2021/08/31 02:25:30;;;;;;;8.67;7.37;;;16.40;83.50;;;;;;5011234;28;20463;-48
2021/08/31 02:27:57;;;;;;;8.30;7.50;;;16.40;83.40;;;;;;5024130;28;20459;-48
2021/08/31 02:30:25;;;;;;;13.37;9.20;;;16.40;83.30;;;;;;5023286;28;20467;-48
2021/08/31 02:32:52;;;;;;;11.57;8.73;;;16.40;82.70;;;;;;5029428;28;20464;-48
2021/08/31 02:35:19;;;;;;;9.40;7.77;;;16.40;82.50;;;;;;5022398;28;20787;-48
2021/08/31 02:37:46;;;;;;;8.03;6.97;;;16.40;82.40;;;;;;5011686;28;20513;-48
2021/08/31 02:40:13;;;;;;;8.07;6.87;;;16.40;82.40;;;;;;5011535;28;20844;-48
2021/08/31 02:42:40;;;;;;;9.53;7.87;;;16.40;82.50;;;;;;5024147;28;20467;-48
2021/08/31 02:45:07;;;;;;;8.60;7.70;;;16.40;82.60;;;;;;5009206;28;20475;-45
2021/08/31 02:47:34;;;;;;;11.27;8.03;;;16.40;82.70;;;;;;5022994;28;20987;-45
2021/08/31 02:50:01;;;;;;;8.20;6.97;;;16.30;82.80;;;;;;5025758;28;20483;-45
2021/08/31 02:52:28;;;;;;;9.20;7.00;;;16.30;83.00;;;;;;5022382;28;20474;-45
2021/08/31 02:54:54;;;;;;;11.60;8.20;;;16.30;83.00;;;;;;5022909;28;21060;-45
2021/08/31 02:57:21;;;;;;;10.23;8.67;;;16.20;83.10;;;;;;5024754;28;20517;-45
2021/08/31 02:59:48;;;;;;;9.70;8.43;;;16.20;83.10;;;;;;5009724;28;20496;-45
2021/08/31 03:02:15;;;;;;;8.53;7.20;;;16.20;83.20;;;;;;5024410;28;20490;-45
2021/08/31 03:04:45;;;;;;;9.47;8.10;;;16.20;83.20;;;;;;5008796;28;20982;-45
2021/08/31 03:07:14;;;;;;;8.20;7.30;;;16.20;83.30;;;;;;5022360;28;20451;-45
2021/08/31 03:09:41;;;;;;;9.37;7.83;;;16.20;83.20;;;;;;5004618;28;20458;-45
2021/08/31 03:12:09;;;;;;;12.13;7.80;;;16.10;83.20;;;;;;5010075;28;20466;-45
2021/08/31 03:14:36;;;;;;;9.27;8.10;;;16.10;83.30;;;;;;5022952;28;20998;-45
2021/08/31 03:17:03;;;;;;;7.77;6.97;;;16.10;83.30;;;;;;5021962;28;20471;-45
2021/08/31 03:19:29;;;;;;;10.33;8.23;;;16.00;83.30;;;;;;5025279;28;20472;-45
2021/08/31 03:21:59;;;;;;;9.33;7.70;;;16.10;83.40;;;;;;5021964;28;20490;-45
2021/08/31 03:24:26;;;;;;;11.53;8.00;;;16.00;83.30;;;;;;5007369;28;20453;-46
2021/08/31 03:26:53;;;;;;;8.23;7.40;;;16.00;83.30;;;;;;5025148;28;20808;-45
2021/08/31 03:29:21;;;;;;;8.63;7.60;;;16.00;83.30;;;;;;5021732;28;20455;-45
2021/08/31 03:31:50;;;;;;;8.73;7.43;;;16.00;83.30;;;;;;5022119;28;20522;-45
2021/08/31 03:34:17;;;;;;;8.30;7.50;;;16.00;83.10;;;;;;5021921;28;20502;-45
2021/08/31 03:36:45;;;;;;;9.80;7.90;;;16.00;83.20;;;;;;5020442;28;20455;-45
2021/08/31 03:39:12;;;;;;;11.90;8.17;;;16.00;83.10;;;;;;5006042;28;20922;-45
2021/08/31 03:41:39;;;;;;;9.30;6.43;;;16.00;83.10;;;;;;5003514;28;21283;-45
2021/08/31 03:44:06;;;;;;;8.23;7.33;;;16.00;83.20;;;;;;5023433;28;20460;-45
2021/08/31 03:46:32;;;;;;;9.00;7.80;;;16.00;83.30;;;;;;5020615;28;20455;-45
2021/08/31 03:49:00;;;;;;;8.17;7.37;;;16.00;83.30;;;;;;5023341;28;20455;-45
2021/08/31 03:51:27;;;;;;;8.97;7.60;;;16.00;83.40;;;;;;5011025;28;20472;-45
2021/08/31 03:53:54;;;;;;;9.63;8.60;;;16.00;83.40;;;;;;5005339;28;20967;-45
2021/08/31 03:56:21;;;;;;;8.43;7.27;;;16.10;83.40;;;;;;5007169;28;20483;-45
2021/08/31 03:58:48;;;;;;;8.03;6.87;;;16.10;83.40;;;;;;5019210;28;20468;-45
2021/08/31 04:01:15;;;;;;;7.80;7.00;;;16.00;83.30;;;;;;5023249;28;20852;-45
2021/08/31 04:03:43;;;;;;;7.80;6.87;;;16.10;83.40;;;;;;5020327;28;20957;-45
2021/08/31 04:06:09;;;;;;;8.43;7.13;;;16.10;83.10;;;;;;5021879;28;20542;-45
2021/08/31 04:08:37;;;;;;;9.77;7.80;;;16.10;82.80;;;;;;5024112;28;20465;-45
2021/08/31 04:11:03;;;;;;;11.10;7.80;;;16.20;82.50;;;;;;5019713;28;20520;-45
2021/08/31 04:13:30;;;;;;;8.87;6.97;;;16.20;82.50;;;;;;5023243;28;20503;-45
2021/08/31 04:15:57;;;;;;;7.67;6.97;;;16.20;82.40;;;;;;5005802;28;20464;-45
2021/08/31 04:18:24;;;;;;;8.67;7.43;;;16.20;82.40;;;;;;5007207;28;20965;-45
2021/08/31 04:20:51;;;;;;;7.60;6.70;;;16.30;82.30;;;;;;5008850;28;20486;-45
2021/08/31 04:23:17;;;;;;;11.37;7.83;;;16.30;82.20;;;;;;5019847;28;20451;-45
2021/08/31 04:25:44;;;;;;;13.23;7.20;;;16.30;82.00;;;;;;5008678;28;20469;-46
2021/08/31 04:28:11;;;;;;;7.97;6.50;;;16.40;81.60;;;;;;5022936;28;20455;-45
2021/08/31 04:30:40;;;;;;;10.23;7.47;;;16.40;81.40;;;;;;5020759;28;20598;-45
2021/08/31 04:33:06;;;;;;;9.33;7.87;;;16.40;80.90;;;;;;5019200;28;20455;-45
2021/08/31 04:35:33;;;;;;;8.30;7.40;;;16.40;81.10;;;;;;5006992;28;20455;-45
2021/08/31 04:38:00;;;;;;;13.53;6.97;;;16.40;80.90;;;;;;5011903;28;20546;-45
2021/08/31 04:40:27;;;;;;;7.03;6.33;;;16.40;80.70;;;;;;5028183;28;20558;-45
2021/08/31 04:42:54;;;;;;;8.20;7.43;;;16.40;80.90;;;;;;5024037;28;20484;-45
2021/08/31 04:45:20;;;;;;;7.87;7.07;;;16.50;80.50;;;;;;5024944;28;20471;-45
2021/08/31 04:47:47;;;;;;;8.93;6.60;;;16.40;80.90;;;;;;5022604;28;21173;-45
2021/08/31 04:50:14;;;;;;;10.07;7.97;;;16.40;80.90;;;;;;5026253;28;20455;-45
2021/08/31 04:52:41;;;;;;;8.80;7.90;;;16.40;81.00;;;;;;5010177;28;20979;-45
2021/08/31 04:55:09;;;;;;;9.87;7.70;;;16.40;81.10;;;;;;5006966;28;20456;-45
2021/08/31 04:57:35;;;;;;;9.87;7.37;;;16.40;81.10;;;;;;5025061;28;20830;-45
2021/08/31 05:00:04;;;;;;;9.17;7.20;;;16.40;81.10;;;;;;5010068;28;20821;-45
2021/08/31 05:02:32;;;;;;;7.77;6.97;;;16.40;81.10;;;;;;5012799;28;20518;-45
2021/08/31 05:04:59;;;;;;;10.33;7.80;;;16.50;80.90;;;;;;5026393;28;20879;-45
2021/08/31 05:07:26;;;;;;;8.47;6.90;;;16.50;80.60;;;;;;5028854;28;20448;-45
2021/08/31 05:09:53;;;;;;;8.50;6.70;;;16.50;80.60;;;;;;5029199;28;20974;-45
2021/08/31 05:12:20;;;;;;;9.30;7.70;;;16.50;80.50;;;;;;5026281;28;20551;-45
2021/08/31 05:14:46;;;;;;;7.37;6.67;;;16.60;80.40;;;;;;5023867;28;20467;-45
2021/08/31 05:17:13;;;;;;;8.60;6.83;;;16.60;80.30;;;;;;5009325;28;20478;-45
2021/08/31 05:19:42;;;;;;;8.87;8.00;;;16.60;80.30;;;;;;5026494;28;20469;-45
2021/08/31 05:22:10;;;;;;;9.00;7.20;;;16.60;80.50;;;;;;5022450;28;20494;-45
2021/08/31 05:24:38;;;;;;;8.90;7.57;;;16.60;80.40;;;;;;5025218;28;20452;-45
2021/08/31 05:27:06;;;;;;;10.77;7.90;;;16.60;79.80;;;;;;5009370;28;20451;-45
2021/08/31 05:29:33;;;;;;;9.63;7.53;;;16.60;79.60;;;;;;5026894;28;20487;-45
2021/08/31 05:32:00;;;;;;;8.93;7.47;;;16.70;79.80;;;;;;5025285;28;21635;-45
2021/08/31 05:34:27;;;;;;;9.90;7.40;;;16.70;79.80;;;;;;5024556;28;20466;-45
2021/08/31 05:36:57;;;;;;;7.90;7.20;;;16.70;79.60;;;;;;5026982;28;20466;-45
2021/08/31 05:39:25;;;;;;;7.17;6.47;;;16.70;79.60;;;;;;5026881;28;20490;-45
2021/08/31 05:41:52;;;;;;;7.10;5.77;;;16.70;79.50;;;;;;5026160;28;20531;-45
2021/08/31 05:44:19;;;;;;;8.80;6.17;;;16.70;79.30;;;;;;5024989;28;20463;-45
2021/08/31 05:46:45;;;;;;;8.77;7.00;;;16.80;79.30;;;;;;5021426;28;20447;-45
2021/08/31 05:49:12;;;;;;;7.63;6.40;;;16.80;79.10;;;;;;5026836;28;20455;-45
2021/08/31 05:51:39;;;;;;;8.60;6.20;;;16.80;79.00;;;;;;5023608;28;20464;-45
2021/08/31 05:54:06;;;;;;;11.07;6.80;;;16.90;78.90;;;;;;5009929;28;20899;-45
2021/08/31 05:56:33;;;;;;;11.50;7.00;;;16.90;78.90;;;;;;5025678;28;20466;-45
2021/08/31 05:58:59;;;;;;;9.80;7.60;;;16.90;78.90;;;;;;5026015;28;20460;-45
2021/08/31 06:01:26;;;;;;;11.70;7.03;;;17.00;78.60;;;;;;5026752;28;20487;-46
2021/08/31 06:03:53;;;;;;;7.93;6.63;;;17.00;78.50;;;;;;5005894;28;20456;-46
2021/08/31 06:06:20;;;;;;;7.77;6.00;;;17.10;78.00;;;;;;5027294;28;20460;-45
2021/08/31 06:08:46;;;;;;;9.07;7.00;;;17.10;78.00;;;;;;5022804;28;20551;-45
2021/08/31 06:11:17;;;;;;;8.90;7.07;;;17.20;77.30;;;;;;5023896;28;20454;-45
2021/08/31 06:13:45;;;;;;;6.53;5.93;;;17.20;77.00;;;;;;5037020;28;20469;-45
2021/08/31 06:16:11;;;;;;;8.03;6.87;;;17.20;77.20;;;;;;5023813;28;20481;-45
2021/08/31 06:18:38;;;;;;;6.53;5.70;;;17.20;77.50;;;;;;5027770;28;20824;-45
2021/08/31 06:21:08;;;;;;;8.47;6.73;;;17.20;77.70;;;;;;5028556;28;21126;-46
2021/08/31 06:23:34;;;;;;;7.50;6.53;;;17.20;77.60;;;;;;5027262;28;20494;-45
2021/08/31 06:26:03;;;;;;;10.50;6.87;;;17.30;77.30;;;;;;5022966;28;20467;-45
2021/08/31 06:28:30;;;;;;;10.93;6.47;;;17.30;77.20;;;;;;5025548;28;20497;-45
2021/08/31 06:30:57;;;;;;;9.33;6.83;;;17.30;77.10;;;;;;5009340;28;20941;-46
2021/08/31 06:33:23;;;;;;;7.40;6.10;;;17.40;76.70;;;;;;5025972;28;20859;-45
2021/08/31 06:35:50;;;;;;;6.17;5.40;;;17.40;76.40;;;;;;5010860;28;21164;-45
2021/08/31 06:38:17;;;;;;;7.77;6.20;;;17.50;76.00;;;;;;5025344;28;20452;-45
2021/08/31 06:40:44;;;;;;;7.83;6.00;;;17.50;76.10;;;;;;5021746;28;20971;-46
2021/08/31 06:43:11;;;;;;;8.57;5.60;;;17.50;76.20;;;;;;5024901;28;20481;-45
2021/08/31 06:45:37;;;;;;;7.27;5.93;;;17.60;74.90;;;;;;5012202;28;20451;-45
2021/08/31 06:48:05;;;;;;;7.77;5.40;;;17.60;74.90;;;;;;5025443;28;20453;-45
2021/08/31 06:50:31;;;;;;;6.87;5.70;;;17.60;75.30;;;;;;5027953;28;20452;-45
2021/08/31 06:52:58;;;;;;;6.20;5.23;;;17.60;75.40;;;;;;5023462;28;20451;-45
2021/08/31 06:55:25;;;;;;;6.70;5.13;;;17.60;75.20;;;;;;5023463;28;20460;-45
2021/08/31 06:57:52;;;;;;;7.50;5.13;;;17.70;75.20;;;;;;5005108;28;20460;-45
2021/08/31 07:00:19;;;;;;;7.10;5.70;;;17.80;74.90;;;;;;5022662;28;20454;-45
2021/08/31 07:02:46;;;;;;;7.33;5.90;;;17.90;75.20;;;;;;5025082;28;20488;-45
2021/08/31 07:05:13;;;;;;;7.43;5.43;;;17.90;74.70;;;;;;5022327;28;20436;-45
2021/08/31 07:07:40;;;;;;;7.30;5.53;;;18.00;74.00;;;;;;5021598;28;20452;-45
2021/08/31 07:10:07;;;;;;;6.53;4.70;;;18.10;73.60;;;;;;5012604;28;20540;-45
2021/08/31 07:12:34;;;;;;;7.40;4.70;;;18.20;73.20;;;;;;5025801;28;20459;-45
2021/08/31 07:15:01;;;;;;;5.90;5.40;;;18.30;72.70;;;;;;5009967;28;20467;-45
2021/08/31 07:17:28;;;;;;;6.50;4.80;;;18.40;72.00;;;;;;5025866;28;20490;-45
2021/08/31 07:19:55;;;;;;;8.70;5.57;;;18.40;71.40;;;;;;5007750;28;20467;-45
2021/08/31 07:22:22;;;;;;;5.37;4.60;;;18.60;71.60;;;;;;5029929;28;20487;-46
2021/08/31 07:24:48;;;;;;;7.43;4.70;;;18.70;70.70;;;;;;5030822;28;20455;-45
2021/08/31 07:27:16;;;;;;;6.27;4.90;;;18.80;70.40;;;;;;5023721;28;20478;-46
2021/08/31 07:29:43;;;;;;;5.20;4.70;;;18.90;69.90;;;;;;5012165;28;20449;-45
2021/08/31 07:32:10;;;;;;;7.50;4.80;;;19.00;69.40;;;;;;5024582;28;20901;-45
2021/08/31 07:34:38;;;;;;;4.90;4.40;;;19.00;68.60;;;;;;5026700;28;20470;-45
2021/08/31 07:37:11;;;;;;;7.37;5.07;;;19.00;69.10;;;;;;5030462;28;20458;-46
2021/08/31 07:39:38;;;;;;;4.43;4.00;;;18.90;69.40;;;;;;5021643;28;20468;-45
2021/08/31 07:42:06;;;;;;;5.60;5.00;;;18.90;69.40;;;;;;5022443;28;21025;-45
2021/08/31 07:44:33;;;;;;;6.10;4.50;;;18.90;69.10;;;;;;5025591;28;20498;-45
2021/08/31 07:47:00;;;;;;;5.33;4.33;;;18.90;69.40;;;;;;5024070;28;20447;-45
2021/08/31 07:49:27;;;;;;;7.33;4.40;;;19.00;69.30;;;;;;5025177;28;20484;-45
2021/08/31 07:51:54;;;;;;;5.10;4.30;;;19.10;68.90;;;;;;5024048;28;20487;-45
2021/08/31 07:54:21;;;;;;;4.77;4.27;;;19.10;68.60;;;;;;5009642;28;20788;-46
2021/08/31 07:56:48;;;;;;;6.97;4.67;;;19.20;68.00;;;;;;5012268;28;20452;-45
2021/08/31 07:59:15;;;;;;;5.00;4.30;;;19.20;68.30;;;;;;5009078;28;20986;-45
2021/08/31 08:01:43;;;;;;;5.20;4.70;;;19.30;68.60;;;;;;5021793;28;20554;-45
2021/08/31 08:04:11;;;;;;;5.00;4.50;;;19.40;68.30;;;;;;5022336;28;20452;-46
2021/08/31 08:06:38;;;;;;;4.73;4.20;;;19.40;68.30;;;;;;5027932;28;20451;-45
2021/08/31 08:09:05;;;;;;;6.47;4.20;;;19.50;68.10;;;;;;5008611;28;20561;-45
2021/08/31 08:11:34;;;;;;;4.80;3.77;;;19.50;68.00;;;;;;5025012;28;20463;-46
2021/08/31 08:14:04;;;;;;;5.03;4.17;;;19.50;68.30;;;;;;5027740;28;20543;-45
2021/08/31 08:16:31;;;;;;;6.70;4.83;;;19.60;68.00;;;;;;5029357;28;20645;-46
2021/08/31 08:18:58;;;;;;;10.77;4.80;;;19.60;66.90;;;;;;5023732;28;20452;-46
2021/08/31 08:21:24;;;;;;;5.00;4.00;;;19.60;67.00;;;;;;5029001;28;20467;-46
2021/08/31 08:23:51;;;;;;;7.50;4.53;;;19.60;67.00;;;;;;5027151;28;20483;-46
2021/08/31 08:26:18;;;;;;;6.50;4.50;;;19.50;67.40;;;;;;5027394;28;20535;-45
2021/08/31 08:28:45;;;;;;;5.80;4.33;;;19.50;67.40;;;;;;5030351;28;20450;-45
2021/08/31 08:31:11;;;;;;;5.10;4.60;;;19.50;67.30;;;;;;5027896;28;20834;-45
2021/08/31 08:33:38;;;;;;;5.33;4.73;;;19.50;67.80;;;;;;5023132;28;20499;-45
2021/08/31 08:36:07;;;;;;;7.40;4.53;;;19.50;68.20;;;;;;5029235;28;20459;-45
2021/08/31 08:38:35;;;;;;;7.37;5.70;;;19.60;68.50;;;;;;5026491;28;20456;-46
2021/08/31 08:41:06;;;;;;;6.23;4.60;;;19.60;68.40;;;;;;5024298;28;20452;-45
2021/08/31 08:43:35;;;;;;;5.10;4.60;;;19.70;67.40;;;;;;5026115;28;20570;-45
2021/08/31 08:46:03;;;;;;;6.27;4.70;;;19.80;67.50;;;;;;5012181;28;20906;-45
2021/08/31 08:48:31;;;;;;;7.80;4.57;;;19.80;66.50;;;;;;4999560;28;20513;-45
2021/08/31 08:51:00;;;;;;;6.33;4.23;;;19.90;66.20;;;;;;5011558;28;20932;-45
2021/08/31 08:53:32;;;;;;;5.00;4.23;;;19.90;66.20;;;;;;5032797;28;20462;-45
2021/08/31 08:56:00;;;;;;;10.10;4.93;;;20.00;66.60;;;;;;5014787;28;20466;-45
2021/08/31 08:58:28;;;;;;;5.83;4.50;;;20.00;65.90;;;;;;5014577;28;21013;-45
2021/08/31 09:01:00;;;;;;;5.90;4.80;;;20.20;66.60;;;;;;5024781;28;20442;-45
2021/08/31 09:03:30;;;;;;;5.17;4.30;;;20.50;66.30;;;;;;5024596;28;21141;-45
2021/08/31 09:06:15;;;;;;;7.80;4.70;;;20.90;65.40;;;;;;5026481;28;20876;-45
2021/08/31 09:08:54;;;;;;;5.10;4.50;;;21.20;63.00;;;;;;5014041;28;20486;-45
2021/08/31 09:11:32;;;;;;;5.20;4.70;;;21.30;62.70;;;;;;5023155;28;20451;-46
2021/08/31 09:14:28;;;;;;;5.87;4.73;;;21.30;62.90;;;;;;5007839;28;20447;-45
2021/08/31 09:17:00;;;;;;;5.23;4.40;;;21.30;62.60;;;;;;5026807;28;20972;-46
2021/08/31 09:19:39;;;;;;;5.40;3.90;;;21.40;62.70;;;;;;5023814;28;20539;-46
2021/08/31 09:22:20;;;;;;;5.10;4.60;;;21.40;63.20;;;;;;5029957;28;20506;-46
2021/08/31 09:24:56;;;;;;;7.53;4.73;;;21.40;63.30;;;;;;5007304;28;20459;-45
2021/08/31 09:27:42;;;;;;;5.10;4.30;;;21.50;62.70;;;;;;5025137;28;21117;-45
2021/08/31 09:30:25;;;;;;;5.80;4.33;;;21.70;61.40;;;;;;5010995;28;20469;-46
2021/08/31 09:33:10;;;;;;;4.97;3.70;;;22.10;61.30;;;;;;5024687;28;20831;-46
2021/08/31 09:35:44;;;;;;;5.73;4.60;;;22.50;59.80;;;;;;5028365;28;20462;-46
2021/08/31 09:38:15;;;;;;;6.60;3.97;;;22.80;58.30;;;;;;5024820;28;20978;-46
2021/08/31 09:40:47;;;;;;;5.87;4.07;;;23.00;57.90;;;;;;5023408;28;20459;-46
2021/08/31 09:43:17;;;;;;;4.83;4.20;;;23.10;57.60;;;;;;5026596;28;20503;-46
2021/08/31 09:45:46;;;;;;;5.83;4.43;;;23.10;57.90;;;;;;5010088;28;21160;-46
2021/08/31 09:48:15;;;;;;;5.27;4.10;;;23.10;57.50;;;;;;5006817;28;20470;-45
2021/08/31 09:50:44;;;;;;;5.63;4.50;;;23.00;57.10;;;;;;5025662;28;20469;-45
2021/08/31 09:53:17;;;;;;;5.87;4.27;;;22.90;57.30;;;;;;5009250;28;20477;-45
2021/08/31 09:56:09;;;;;;;5.63;4.17;;;22.80;57.90;;;;;;5005002;28;20485;-45
2021/08/31 09:58:40;;;;;;;4.90;4.43;;;22.70;58.00;;;;;;5025800;28;20463;-45
2021/08/31 10:01:07;;;;;;;4.93;4.47;;;22.60;59.30;;;;;;5021856;28;20458;-45
2021/08/31 10:03:35;;;;;;;4.80;4.30;;;22.50;58.90;;;;;;5009519;28;20487;-46
2021/08/31 10:06:06;;;;;;;7.00;4.53;;;22.50;58.60;;;;;;5025844;28;20459;-46
2021/08/31 10:08:35;;;;;;;5.40;4.23;;;22.50;59.00;;;;;;5026824;28;20974;-46
2021/08/31 10:11:03;;;;;;;5.77;5.07;;;22.40;59.20;;;;;;5027136;28;20467;-46
2021/08/31 10:13:37;;;;;;;7.20;4.40;;;22.20;59.50;;;;;;5013381;28;20465;-46
2021/08/31 10:16:05;;;;;;;4.93;4.10;;;22.10;59.90;;;;;;5009035;28;20510;-46
2021/08/31 10:18:32;;;;;;;7.00;4.90;;;21.90;60.50;;;;;;5006458;28;20459;-46
2021/08/31 10:21:06;;;;;;;6.27;4.83;;;21.80;60.90;;;;;;5024071;28;20968;-45
2021/08/31 10:23:39;;;;;;;7.63;5.50;;;21.70;61.60;;;;;;5025728;28;20483;-46
2021/08/31 10:26:29;;;;;;;5.37;4.87;;;21.50;61.50;;;;;;5023799;28;20452;-46
2021/08/31 10:29:14;;;;;;;6.00;5.03;;;21.40;61.70;;;;;;5022410;28;20522;-46
2021/08/31 10:31:46;;;;;;;6.47;4.80;;;21.30;62.50;;;;;;5025795;28;20463;-46
2021/08/31 10:34:31;;;;;;;6.00;4.37;;;21.20;62.80;;;;;;5025484;28;20586;-46
2021/08/31 10:37:12;;;;;;;4.90;4.20;;;21.10;62.90;;;;;;5024471;28;20462;-46
2021/08/31 10:39:56;;;;;;;5.30;4.83;;;21.20;63.70;;;;;;5029375;28;20510;-46
2021/08/31 10:42:28;;;;;;;5.00;4.47;;;21.30;62.80;;;;;;5021614;28;20570;-46
2021/08/31 10:45:00;;;;;;;6.70;5.10;;;21.40;63.00;;;;;;5018935;28;20524;-46
2021/08/31 10:47:34;;;;;;;5.10;4.60;;;21.50;62.80;;;;;;5030833;28;21004;-45
2021/08/31 10:50:04;;;;;;;6.60;4.77;;;21.50;63.00;;;;;;5007054;28;20456;-46
2021/08/31 10:52:38;;;;;;;7.20;4.60;;;21.50;63.30;;;;;;5022502;28;20446;-45
2021/08/31 10:55:26;;;;;;;5.47;4.20;;;21.70;62.30;;;;;;5011417;28;20440;-46
2021/08/31 10:57:58;;;;;;;6.50;5.57;;;21.70;61.40;;;;;;5023477;28;20554;-46
2021/08/31 11:00:25;;;;;;;5.10;4.60;;;21.70;61.00;;;;;;5021492;28;20459;-46
2021/08/31 11:02:53;;;;;;;5.93;4.63;;;21.70;61.70;;;;;;5003926;28;20487;-46
2021/08/31 11:05:26;;;;;;;5.37;4.43;;;21.70;61.60;;;;;;5002575;28;20464;-46
2021/08/31 11:08:00;;;;;;;5.53;4.80;;;21.60;61.50;;;;;;5025081;28;20451;-46
2021/08/31 11:10:35;;;;;;;7.07;5.20;;;21.50;61.20;;;;;;5007492;28;20452;-46
2021/08/31 11:13:13;;;;;;;5.80;4.50;;;21.50;61.60;;;;;;5022060;28;20451;-46
2021/08/31 11:15:40;;;;;;;6.00;4.70;;;21.50;61.50;;;;;;5022664;28;20458;-46
2021/08/31 11:18:12;;;;;;;5.97;4.60;;;21.50;61.10;;;;;;5011655;28;20448;-46
2021/08/31 11:20:40;;;;;;;6.40;4.97;;;21.60;61.70;;;;;;5024015;28;20480;-46
2021/08/31 11:23:18;;;;;;;5.63;4.53;;;21.70;61.30;;;;;;5026256;28;20630;-45
2021/08/31 11:25:50;;;;;;;5.90;5.30;;;21.70;61.70;;;;;;5022521;28;20455;-45
2021/08/31 11:28:20;;;;;;;7.10;4.60;;;21.80;62.10;;;;;;5007515;28;20479;-46
2021/08/31 11:30:51;;;;;;;5.57;4.77;;;21.90;61.70;;;;;;5021800;28;20547;-46
2021/08/31 11:33:31;;;;;;;6.63;5.40;;;21.90;61.40;;;;;;5005627;28;20459;-46
2021/08/31 11:36:03;;;;;;;5.57;5.07;;;21.90;61.30;;;;;;5007080;28;20447;-46
2021/08/31 11:38:54;;;;;;;7.20;5.47;;;22.00;60.30;;;;;;5005065;28;20467;-46
2021/08/31 11:41:42;;;;;;;5.90;4.83;;;22.10;60.50;;;;;;5006640;28;20463;-46
2021/08/31 11:44:18;;;;;;;5.20;4.60;;;22.20;61.10;;;;;;5023641;28;20506;-45
2021/08/31 11:46:48;;;;;;;5.87;5.23;;;22.30;60.50;;;;;;5023443;28;20443;-46
2021/08/31 11:49:21;;;;;;;5.73;5.10;;;22.30;59.80;;;;;;5025057;28;20460;-46
2021/08/31 11:52:02;;;;;;;4.63;4.23;;;22.30;59.30;;;;;;5024236;28;20465;-46
2021/08/31 11:54:38;;;;;;;4.80;4.40;;;22.40;59.70;;;;;;5011184;28;20860;-46
2021/08/31 11:57:07;;;;;;;5.77;5.17;;;22.50;60.30;;;;;;5020890;28;20468;-45
2021/08/31 11:59:40;;;;;;;6.33;5.07;;;22.50;59.90;;;;;;5023851;28;20450;-46
2021/08/31 12:02:38;;;;;;;6.10;5.57;;;22.50;59.80;;;;;;5011873;28;20546;-45
2021/08/31 12:05:07;;;;;;;4.80;4.33;;;22.50;59.50;;;;;;5022297;28;21022;-45
2021/08/31 12:07:47;;;;;;;5.67;5.10;;;22.50;59.10;;;;;;5006102;28;21064;-46
2021/08/31 12:10:25;;;;;;;6.37;5.37;;;22.50;59.80;;;;;;5005249;28;20459;-46
2021/08/31 12:12:52;;;;;;;5.10;4.67;;;22.40;60.30;;;;;;5023099;28;20482;-46
2021/08/31 12:15:24;;;;;;;6.97;5.87;;;22.30;59.90;;;;;;5006255;28;20521;-46
2021/08/31 12:18:00;;;;;;;6.93;5.67;;;22.20;60.30;;;;;;5022024;28;20456;-46
2021/08/31 12:20:30;;;;;;;6.50;5.90;;;22.10;60.90;;;;;;5020642;28;20540;-46
2021/08/31 12:23:05;;;;;;;6.77;6.07;;;22.00;61.40;;;;;;5010244;28;20482;-46
2021/08/31 12:25:42;;;;;;;6.33;5.23;;;21.80;61.40;;;;;;4990913;28;20545;-46
2021/08/31 12:28:10;;;;;;;6.60;6.00;;;21.70;61.60;;;;;;5023060;28;20932;-46
2021/08/31 12:30:45;;;;;;;6.97;5.87;;;21.60;61.60;;;;;;5006287;28;20953;-46
2021/08/31 12:33:21;;;;;;;8.20;5.90;;;21.50;62.50;;;;;;5026642;28;20936;-46
2021/08/31 12:35:59;;;;;;;6.77;6.00;;;21.40;62.90;;;;;;5021740;28;20546;-46
2021/08/31 12:38:33;;;;;;;7.03;6.20;;;21.40;62.70;;;;;;5020743;28;20805;-46
2021/08/31 12:41:13;;;;;;;7.03;6.33;;;21.40;63.20;;;;;;5023521;28;20468;-46
2021/08/31 12:43:49;;;;;;;6.03;5.23;;;21.40;62.50;;;;;;5024505;28;20488;-45
2021/08/31 12:46:35;;;;;;;7.47;6.40;;;21.50;62.30;;;;;;5025172;28;20830;-45
2021/08/31 12:49:13;;;;;;;7.20;5.77;;;21.50;62.50;;;;;;5024254;28;20455;-46
2021/08/31 12:51:45;;;;;;;7.27;5.00;;;21.60;61.80;;;;;;5004911;28;20469;-46
2021/08/31 12:54:22;;;;;;;6.53;5.20;;;21.60;61.90;;;;;;5022144;28;20467;-46
2021/08/31 12:56:53;;;;;;;6.90;5.70;;;21.60;62.00;;;;;;5023328;28;21052;-45